sensor_id;sensor_type;location;lat;lon;timestamp;temperature;humidity
77496;SHT31;66600;48.378;9.948;2023-08-06T00:00:20;14.38;95.92
77496;SHT31;66600;48.378;9.948;2023-08-06T00:00:50;14.39;95.94
77496;SHT31;66600;48.378;9.948;2023-08-06T00:01:20;14.38;95.95
77496;SHT31;66600;48.378;9.948;2023-08-06T00:01:52;14.41;95.91
77496;SHT31;66600;48.378;9.948;2023-08-06T00:02:23;14.38;95.77
77496;SHT31;66600;48.378;9.948;2023-08-06T00:02:54;14.35;95.93
77496;SHT31;66600;48.378;9.948;2023-08-06T00:03:24;14.36;96.01
77496;SHT31;66600;48.378;9.948;2023-08-06T00:03:54;14.36;96.00
77496;SHT31;66600;48.378;9.948;2023-08-06T00:04:25;14.36;95.86
77496;SHT31;66600;48.378;9.948;2023-08-06T00:04:55;14.36;95.76
77496;SHT31;66600;48.378;9.948;2023-08-06T00:05:26;14.39;95.78
77496;SHT31;66600;48.378;9.948;2023-08-06T00:05:56;14.36;95.75
77496;SHT31;66600;48.378;9.948;2023-08-06T00:06:26;14.36;95.59
77496;SHT31;66600;48.378;9.948;2023-08-06T00:06:57;14.31;95.61
77496;SHT31;66600;48.378;9.948;2023-08-06T00:07:27;14.29;95.57
77496;SHT31;66600;48.378;9.948;2023-08-06T00:07:57;14.25;95.56
77496;SHT31;66600;48.378;9.948;2023-08-06T00:08:28;14.24;95.60
77496;SHT31;66600;48.378;9.948;2023-08-06T00:08:58;14.22;95.77
77496;SHT31;66600;48.378;9.948;2023-08-06T00:09:28;14.22;95.89
77496;SHT31;66600;48.378;9.948;2023-08-06T00:09:59;14.24;95.86
77496;SHT31;66600;48.378;9.948;2023-08-06T00:10:29;14.26;96.10
77496;SHT31;66600;48.378;9.948;2023-08-06T00:10:59;14.26;96.02
77496;SHT31;66600;48.378;9.948;2023-08-06T00:11:30;14.24;95.99
77496;SHT31;66600;48.378;9.948;2023-08-06T00:12:00;14.25;96.14
77496;SHT31;66600;48.378;9.948;2023-08-06T00:12:30;14.24;96.04
77496;SHT31;66600;48.378;9.948;2023-08-06T00:13:01;14.22;95.98
77496;SHT31;66600;48.378;9.948;2023-08-06T00:13:31;14.24;95.99
77496;SHT31;66600;48.378;9.948;2023-08-06T00:14:02;14.25;95.87
77496;SHT31;66600;48.378;9.948;2023-08-06T00:14:32;14.24;95.81
77496;SHT31;66600;48.378;9.948;2023-08-06T00:15:03;14.24;95.81
77496;SHT31;66600;48.378;9.948;2023-08-06T00:15:33;14.21;95.86
77496;SHT31;66600;48.378;9.948;2023-08-06T00:16:10;14.22;96.17
77496;SHT31;66600;48.378;9.948;2023-08-06T00:16:44;14.20;96.09
77496;SHT31;66600;48.378;9.948;2023-08-06T00:17:15;14.21;96.35
77496;SHT31;66600;48.378;9.948;2023-08-06T00:17:45;14.18;96.31
77496;SHT31;66600;48.378;9.948;2023-08-06T00:18:15;14.18;96.52
77496;SHT31;66600;48.378;9.948;2023-08-06T00:18:46;14.15;96.31
77496;SHT31;66600;48.378;9.948;2023-08-06T00:19:16;14.14;96.39
77496;SHT31;66600;48.378;9.948;2023-08-06T00:19:46;14.15;96.39
77496;SHT31;66600;48.378;9.948;2023-08-06T00:20:17;14.15;96.55
77496;SHT31;66600;48.378;9.948;2023-08-06T00:20:48;14.17;96.76
77496;SHT31;66600;48.378;9.948;2023-08-06T00:21:18;14.18;96.79
77496;SHT31;66600;48.378;9.948;2023-08-06T00:21:48;14.17;96.60
77496;SHT31;66600;48.378;9.948;2023-08-06T00:22:19;14.17;96.72
77496;SHT31;66600;48.378;9.948;2023-08-06T00:22:49;14.11;96.53
77496;SHT31;66600;48.378;9.948;2023-08-06T00:23:19;14.17;96.46
77496;SHT31;66600;48.378;9.948;2023-08-06T00:23:52;14.17;96.50
77496;SHT31;66600;48.378;9.948;2023-08-06T00:24:22;14.18;96.41
77496;SHT31;66600;48.378;9.948;2023-08-06T00:24:53;14.20;96.29
77496;SHT31;66600;48.378;9.948;2023-08-06T00:25:23;14.18;96.34
77496;SHT31;66600;48.378;9.948;2023-08-06T00:25:53;14.18;96.20
77496;SHT31;66600;48.378;9.948;2023-08-06T00:26:24;14.18;96.04
77496;SHT31;66600;48.378;9.948;2023-08-06T00:26:54;14.18;96.04
77496;SHT31;66600;48.378;9.948;2023-08-06T00:27:25;14.20;96.16
77496;SHT31;66600;48.378;9.948;2023-08-06T00:27:55;14.17;96.13
77496;SHT31;66600;48.378;9.948;2023-08-06T00:28:26;14.17;96.08
77496;SHT31;66600;48.378;9.948;2023-08-06T00:28:57;14.11;96.09
77496;SHT31;66600;48.378;9.948;2023-08-06T00:29:27;14.10;96.20
77496;SHT31;66600;48.378;9.948;2023-08-06T00:29:58;14.11;96.39
77496;SHT31;66600;48.378;9.948;2023-08-06T00:30:28;14.11;96.30
77496;SHT31;66600;48.378;9.948;2023-08-06T00:30:58;14.11;96.46
77496;SHT31;66600;48.378;9.948;2023-08-06T00:31:29;14.11;96.46
77496;SHT31;66600;48.378;9.948;2023-08-06T00:31:59;14.11;96.51
77496;SHT31;66600;48.378;9.948;2023-08-06T00:32:30;14.13;96.48
77496;SHT31;66600;48.378;9.948;2023-08-06T00:33:00;14.13;96.51
77496;SHT31;66600;48.378;9.948;2023-08-06T00:33:30;14.13;96.43
77496;SHT31;66600;48.378;9.948;2023-08-06T00:34:01;14.14;96.44
77496;SHT31;66600;48.378;9.948;2023-08-06T00:34:31;14.14;96.47
77496;SHT31;66600;48.378;9.948;2023-08-06T00:35:01;14.17;96.37
77496;SHT31;66600;48.378;9.948;2023-08-06T00:35:33;14.13;96.26
77496;SHT31;66600;48.378;9.948;2023-08-06T00:36:03;14.11;96.07
77496;SHT31;66600;48.378;9.948;2023-08-06T00:36:34;14.11;96.00
77496;SHT31;66600;48.378;9.948;2023-08-06T00:37:04;14.08;95.92
77496;SHT31;66600;48.378;9.948;2023-08-06T00:37:34;14.11;95.93
77496;SHT31;66600;48.378;9.948;2023-08-06T00:38:05;14.11;96.04
77496;SHT31;66600;48.378;9.948;2023-08-06T00:38:35;14.10;96.09
77496;SHT31;66600;48.378;9.948;2023-08-06T00:39:05;14.08;96.23
77496;SHT31;66600;48.378;9.948;2023-08-06T00:39:37;14.13;96.26
77496;SHT31;66600;48.378;9.948;2023-08-06T00:40:07;14.11;96.24
77496;SHT31;66600;48.378;9.948;2023-08-06T00:40:38;14.07;96.13
77496;SHT31;66600;48.378;9.948;2023-08-06T00:41:09;14.07;95.93
77496;SHT31;66600;48.378;9.948;2023-08-06T00:41:39;14.08;96.08
77496;SHT31;66600;48.378;9.948;2023-08-06T00:42:10;14.07;96.22
77496;SHT31;66600;48.378;9.948;2023-08-06T00:42:41;14.07;96.35
77496;SHT31;66600;48.378;9.948;2023-08-06T00:43:11;14.05;96.29
77496;SHT31;66600;48.378;9.948;2023-08-06T00:43:41;14.08;96.31
77496;SHT31;66600;48.378;9.948;2023-08-06T00:44:12;14.08;96.27
77496;SHT31;66600;48.378;9.948;2023-08-06T00:44:42;14.07;96.20
77496;SHT31;66600;48.378;9.948;2023-08-06T00:45:13;14.10;96.11
77496;SHT31;66600;48.378;9.948;2023-08-06T00:45:43;14.10;96.20
77496;SHT31;66600;48.378;9.948;2023-08-06T00:46:14;14.10;96.21
77496;SHT31;66600;48.378;9.948;2023-08-06T00:46:44;14.07;96.00
77496;SHT31;66600;48.378;9.948;2023-08-06T00:47:15;14.10;96.10
77496;SHT31;66600;48.378;9.948;2023-08-06T00:47:46;14.07;95.96
77496;SHT31;66600;48.378;9.948;2023-08-06T00:48:16;14.05;95.77
77496;SHT31;66600;48.378;9.948;2023-08-06T00:48:47;14.01;95.84
77496;SHT31;66600;48.378;9.948;2023-08-06T00:49:18;14.03;96.02
77496;SHT31;66600;48.378;9.948;2023-08-06T00:49:49;14.00;95.94
77496;SHT31;66600;48.378;9.948;2023-08-06T00:50:19;14.01;96.06
77496;SHT31;66600;48.378;9.948;2023-08-06T00:50:52;14.00;96.14
77496;SHT31;66600;48.378;9.948;2023-08-06T00:51:24;14.01;96.14
77496;SHT31;66600;48.378;9.948;2023-08-06T00:51:55;14.00;96.17
77496;SHT31;66600;48.378;9.948;2023-08-06T00:52:26;14.03;96.09
77496;SHT31;66600;48.378;9.948;2023-08-06T00:52:56;14.03;95.95
77496;SHT31;66600;48.378;9.948;2023-08-06T00:53:27;14.03;95.99
77496;SHT31;66600;48.378;9.948;2023-08-06T00:53:58;14.05;96.11
77496;SHT31;66600;48.378;9.948;2023-08-06T00:54:28;14.04;96.17
77496;SHT31;66600;48.378;9.948;2023-08-06T00:54:59;14.07;96.14
77496;SHT31;66600;48.378;9.948;2023-08-06T00:55:29;14.04;96.02
77496;SHT31;66600;48.378;9.948;2023-08-06T00:56:00;14.07;95.95
77496;SHT31;66600;48.378;9.948;2023-08-06T00:56:32;14.04;96.06
77496;SHT31;66600;48.378;9.948;2023-08-06T00:57:07;14.04;96.07
77496;SHT31;66600;48.378;9.948;2023-08-06T00:57:38;14.01;96.02
77496;SHT31;66600;48.378;9.948;2023-08-06T00:58:08;14.00;96.01
77496;SHT31;66600;48.378;9.948;2023-08-06T00:58:39;13.98;96.17
77496;SHT31;66600;48.378;9.948;2023-08-06T00:59:10;14.00;96.18
77496;SHT31;66600;48.378;9.948;2023-08-06T00:59:41;14.01;96.23
77496;SHT31;66600;48.378;9.948;2023-08-06T01:00:12;14.03;96.31
77496;SHT31;66600;48.378;9.948;2023-08-06T01:00:42;14.05;96.21
77496;SHT31;66600;48.378;9.948;2023-08-06T01:01:12;14.05;96.29
77496;SHT31;66600;48.378;9.948;2023-08-06T01:01:43;14.08;96.30
77496;SHT31;66600;48.378;9.948;2023-08-06T01:02:14;14.07;96.29
77496;SHT31;66600;48.378;9.948;2023-08-06T01:02:45;14.04;96.14
77496;SHT31;66600;48.378;9.948;2023-08-06T01:03:16;14.04;96.23
77496;SHT31;66600;48.378;9.948;2023-08-06T01:03:46;14.04;96.16
77496;SHT31;66600;48.378;9.948;2023-08-06T01:04:17;14.04;96.24
77496;SHT31;66600;48.378;9.948;2023-08-06T01:04:47;14.07;96.31
77496;SHT31;66600;48.378;9.948;2023-08-06T01:05:17;14.08;96.25
77496;SHT31;66600;48.378;9.948;2023-08-06T01:05:48;14.04;96.26
77496;SHT31;66600;48.378;9.948;2023-08-06T01:06:23;14.04;96.23
77496;SHT31;66600;48.378;9.948;2023-08-06T01:08:28;14.07;96.35
77496;SHT31;66600;48.378;9.948;2023-08-06T01:09:34;14.05;96.29
77496;SHT31;66600;48.378;9.948;2023-08-06T01:11:47;14.01;96.24
77496;SHT31;66600;48.378;9.948;2023-08-06T01:13:16;13.96;96.51
77496;SHT31;66600;48.378;9.948;2023-08-06T01:13:55;13.94;96.54
77496;SHT31;66600;48.378;9.948;2023-08-06T01:14:33;13.91;96.51
77496;SHT31;66600;48.378;9.948;2023-08-06T01:15:08;13.87;96.65
77496;SHT31;66600;48.378;9.948;2023-08-06T01:15:46;13.84;96.51
77496;SHT31;66600;48.378;9.948;2023-08-06T01:16:18;13.81;96.49
77496;SHT31;66600;48.378;9.948;2023-08-06T01:16:50;13.80;96.53
77496;SHT31;66600;48.378;9.948;2023-08-06T01:17:21;13.80;96.65
77496;SHT31;66600;48.378;9.948;2023-08-06T01:17:53;13.76;96.71
77496;SHT31;66600;48.378;9.948;2023-08-06T01:18:23;13.78;96.69
77496;SHT31;66600;48.378;9.948;2023-08-06T01:18:54;13.76;96.74
77496;SHT31;66600;48.378;9.948;2023-08-06T01:19:24;13.73;96.69
77496;SHT31;66600;48.378;9.948;2023-08-06T01:19:54;13.71;96.93
77496;SHT31;66600;48.378;9.948;2023-08-06T01:20:29;13.73;96.88
77496;SHT31;66600;48.378;9.948;2023-08-06T01:21:00;13.71;96.94
77496;SHT31;66600;48.378;9.948;2023-08-06T01:21:30;13.71;97.13
77496;SHT31;66600;48.378;9.948;2023-08-06T01:22:00;13.73;97.20
77496;SHT31;66600;48.378;9.948;2023-08-06T01:22:31;13.74;97.12
77496;SHT31;66600;48.378;9.948;2023-08-06T01:23:01;13.70;97.18
77496;SHT31;66600;48.378;9.948;2023-08-06T01:23:31;13.69;97.17
77496;SHT31;66600;48.378;9.948;2023-08-06T01:24:03;13.66;97.33
77496;SHT31;66600;48.378;9.948;2023-08-06T01:24:33;13.63;97.27
77496;SHT31;66600;48.378;9.948;2023-08-06T01:25:04;13.65;97.33
77496;SHT31;66600;48.378;9.948;2023-08-06T01:26:27;13.59;97.41
77496;SHT31;66600;48.378;9.948;2023-08-06T01:27:20;13.53;97.20
77496;SHT31;66600;48.378;9.948;2023-08-06T01:27:56;13.56;97.14
77496;SHT31;66600;48.378;9.948;2023-08-06T01:30:00;13.46;97.13
77496;SHT31;66600;48.378;9.948;2023-08-06T01:30:29;13.39;97.21
77496;SHT31;66600;48.378;9.948;2023-08-06T01:31:02;13.36;97.33
77496;SHT31;66600;48.378;9.948;2023-08-06T01:31:39;13.38;97.45
77496;SHT31;66600;48.378;9.948;2023-08-06T01:32:12;13.36;97.43
77496;SHT31;66600;48.378;9.948;2023-08-06T01:32:46;13.31;97.41
77496;SHT31;66600;48.378;9.948;2023-08-06T01:33:21;13.31;97.44
77496;SHT31;66600;48.378;9.948;2023-08-06T01:33:53;13.29;97.50
77496;SHT31;66600;48.378;9.948;2023-08-06T01:34:25;13.25;97.43
77496;SHT31;66600;48.378;9.948;2023-08-06T01:34:59;13.25;97.42
77496;SHT31;66600;48.378;9.948;2023-08-06T01:35:30;13.23;97.41
77496;SHT31;66600;48.378;9.948;2023-08-06T01:36:02;13.25;97.22
77496;SHT31;66600;48.378;9.948;2023-08-06T01:36:33;13.22;97.18
77496;SHT31;66600;48.378;9.948;2023-08-06T01:37:04;13.22;97.14
77496;SHT31;66600;48.378;9.948;2023-08-06T01:37:35;13.22;97.15
77496;SHT31;66600;48.378;9.948;2023-08-06T01:38:06;13.21;97.18
77496;SHT31;66600;48.378;9.948;2023-08-06T01:38:37;13.23;97.04
77496;SHT31;66600;48.378;9.948;2023-08-06T01:39:07;13.23;96.88
77496;SHT31;66600;48.378;9.948;2023-08-06T01:39:39;13.19;96.75
77496;SHT31;66600;48.378;9.948;2023-08-06T01:40:11;13.21;96.92
77496;SHT31;66600;48.378;9.948;2023-08-06T01:40:44;13.18;96.93
77496;SHT31;66600;48.378;9.948;2023-08-06T01:41:15;13.16;96.80
77496;SHT31;66600;48.378;9.948;2023-08-06T01:41:45;13.18;96.87
77496;SHT31;66600;48.378;9.948;2023-08-06T01:42:15;13.18;96.67
77496;SHT31;66600;48.378;9.948;2023-08-06T01:42:46;13.15;96.69
77496;SHT31;66600;48.378;9.948;2023-08-06T01:43:16;13.15;96.71
77496;SHT31;66600;48.378;9.948;2023-08-06T01:43:46;13.18;96.85
77496;SHT31;66600;48.378;9.948;2023-08-06T01:44:18;13.14;96.86
77496;SHT31;66600;48.378;9.948;2023-08-06T01:44:48;13.14;96.68
77496;SHT31;66600;48.378;9.948;2023-08-06T01:45:18;13.12;96.80
77496;SHT31;66600;48.378;9.948;2023-08-06T01:45:49;13.12;96.63
77496;SHT31;66600;48.378;9.948;2023-08-06T01:46:19;13.11;96.84
77496;SHT31;66600;48.378;9.948;2023-08-06T01:46:49;13.14;96.98
77496;SHT31;66600;48.378;9.948;2023-08-06T01:47:20;13.15;96.92
77496;SHT31;66600;48.378;9.948;2023-08-06T01:47:50;13.10;96.82
77496;SHT31;66600;48.378;9.948;2023-08-06T01:48:20;13.10;96.78
77496;SHT31;66600;48.378;9.948;2023-08-06T01:48:51;13.08;96.74
77496;SHT31;66600;48.378;9.948;2023-08-06T01:49:21;13.10;96.67
77496;SHT31;66600;48.378;9.948;2023-08-06T01:49:51;13.08;96.68
77496;SHT31;66600;48.378;9.948;2023-08-06T01:50:22;13.07;96.63
77496;SHT31;66600;48.378;9.948;2023-08-06T01:50:52;13.07;96.70
77496;SHT31;66600;48.378;9.948;2023-08-06T01:51:23;13.04;96.57
77496;SHT31;66600;48.378;9.948;2023-08-06T01:51:53;13.07;96.63
77496;SHT31;66600;48.378;9.948;2023-08-06T01:52:23;13.02;96.65
77496;SHT31;66600;48.378;9.948;2023-08-06T01:52:54;13.04;96.68
77496;SHT31;66600;48.378;9.948;2023-08-06T01:53:24;13.04;96.73
77496;SHT31;66600;48.378;9.948;2023-08-06T01:53:54;13.05;96.78
77496;SHT31;66600;48.378;9.948;2023-08-06T01:54:25;13.02;96.71
77496;SHT31;66600;48.378;9.948;2023-08-06T01:54:55;13.01;96.85
77496;SHT31;66600;48.378;9.948;2023-08-06T01:55:25;13.00;96.76
77496;SHT31;66600;48.378;9.948;2023-08-06T01:55:56;13.00;96.69
77496;SHT31;66600;48.378;9.948;2023-08-06T01:56:26;13.00;96.68
77496;SHT31;66600;48.378;9.948;2023-08-06T01:56:56;12.95;96.63
77496;SHT31;66600;48.378;9.948;2023-08-06T01:57:28;13.00;96.62
77496;SHT31;66600;48.378;9.948;2023-08-06T01:57:58;12.95;96.56
77496;SHT31;66600;48.378;9.948;2023-08-06T01:58:29;12.98;96.54
77496;SHT31;66600;48.378;9.948;2023-08-06T01:58:59;13.01;96.69
77496;SHT31;66600;48.378;9.948;2023-08-06T01:59:30;13.00;96.68
77496;SHT31;66600;48.378;9.948;2023-08-06T02:00:00;13.00;96.74
77496;SHT31;66600;48.378;9.948;2023-08-06T02:00:30;12.97;96.69
77496;SHT31;66600;48.378;9.948;2023-08-06T02:01:01;12.97;96.72
77496;SHT31;66600;48.378;9.948;2023-08-06T02:01:32;12.93;96.49
77496;SHT31;66600;48.378;9.948;2023-08-06T02:02:02;12.93;96.53
77496;SHT31;66600;48.378;9.948;2023-08-06T02:02:33;12.93;96.59
77496;SHT31;66600;48.378;9.948;2023-08-06T02:03:04;12.94;96.51
77496;SHT31;66600;48.378;9.948;2023-08-06T02:03:34;12.90;96.53
77496;SHT31;66600;48.378;9.948;2023-08-06T02:04:04;12.91;96.81
77496;SHT31;66600;48.378;9.948;2023-08-06T02:04:35;12.94;96.95
77496;SHT31;66600;48.378;9.948;2023-08-06T02:05:05;12.88;96.78
77496;SHT31;66600;48.378;9.948;2023-08-06T02:05:36;12.90;96.80
77496;SHT31;66600;48.378;9.948;2023-08-06T02:06:06;12.91;97.01
77496;SHT31;66600;48.378;9.948;2023-08-06T02:06:36;12.90;96.99
77496;SHT31;66600;48.378;9.948;2023-08-06T02:07:07;12.91;97.04
77496;SHT31;66600;48.378;9.948;2023-08-06T02:07:37;12.91;97.08
77496;SHT31;66600;48.378;9.948;2023-08-06T02:08:08;12.97;96.95
77496;SHT31;66600;48.378;9.948;2023-08-06T02:08:38;12.95;96.93
77496;SHT31;66600;48.378;9.948;2023-08-06T02:09:09;13.01;96.94
77496;SHT31;66600;48.378;9.948;2023-08-06T02:09:40;13.02;96.88
77496;SHT31;66600;48.378;9.948;2023-08-06T02:10:10;13.02;96.64
77496;SHT31;66600;48.378;9.948;2023-08-06T02:10:40;13.02;96.68
77496;SHT31;66600;48.378;9.948;2023-08-06T02:11:11;13.07;96.67
77496;SHT31;66600;48.378;9.948;2023-08-06T02:11:42;13.08;96.72
77496;SHT31;66600;48.378;9.948;2023-08-06T02:12:12;13.08;96.69
77496;SHT31;66600;48.378;9.948;2023-08-06T02:12:42;13.05;96.51
77496;SHT31;66600;48.378;9.948;2023-08-06T02:13:13;13.10;96.50
77496;SHT31;66600;48.378;9.948;2023-08-06T02:13:43;13.11;96.44
77496;SHT31;66600;48.378;9.948;2023-08-06T02:14:14;13.10;96.37
77496;SHT31;66600;48.378;9.948;2023-08-06T02:14:44;13.08;96.33
77496;SHT31;66600;48.378;9.948;2023-08-06T02:15:15;13.10;96.50
77496;SHT31;66600;48.378;9.948;2023-08-06T02:15:45;13.11;96.55
77496;SHT31;66600;48.378;9.948;2023-08-06T02:16:18;13.12;96.59
77496;SHT31;66600;48.378;9.948;2023-08-06T02:16:49;13.14;96.53
77496;SHT31;66600;48.378;9.948;2023-08-06T02:17:20;13.15;96.41
77496;SHT31;66600;48.378;9.948;2023-08-06T02:17:50;13.12;96.49
77496;SHT31;66600;48.378;9.948;2023-08-06T02:18:21;13.12;96.40
77496;SHT31;66600;48.378;9.948;2023-08-06T02:18:51;13.14;96.53
77496;SHT31;66600;48.378;9.948;2023-08-06T02:19:21;13.14;96.55
77496;SHT31;66600;48.378;9.948;2023-08-06T02:19:52;13.18;96.63
77496;SHT31;66600;48.378;9.948;2023-08-06T02:20:22;13.18;96.64
77496;SHT31;66600;48.378;9.948;2023-08-06T02:20:56;13.23;96.63
77496;SHT31;66600;48.378;9.948;2023-08-06T02:21:27;13.22;96.62
77496;SHT31;66600;48.378;9.948;2023-08-06T02:21:58;13.25;96.54
77496;SHT31;66600;48.378;9.948;2023-08-06T02:22:28;13.25;96.51
77496;SHT31;66600;48.378;9.948;2023-08-06T02:22:58;13.25;96.46
77496;SHT31;66600;48.378;9.948;2023-08-06T02:23:29;13.29;96.52
77496;SHT31;66600;48.378;9.948;2023-08-06T02:23:59;13.29;96.46
77496;SHT31;66600;48.378;9.948;2023-08-06T02:24:29;13.26;96.54
77496;SHT31;66600;48.378;9.948;2023-08-06T02:25:00;13.26;96.51
77496;SHT31;66600;48.378;9.948;2023-08-06T02:25:30;13.31;96.38
77496;SHT31;66600;48.378;9.948;2023-08-06T02:26:03;13.29;96.12
77496;SHT31;66600;48.378;9.948;2023-08-06T02:26:33;13.28;96.03
77496;SHT31;66600;48.378;9.948;2023-08-06T02:27:04;13.26;96.18
77496;SHT31;66600;48.378;9.948;2023-08-06T02:27:34;13.25;96.25
77496;SHT31;66600;48.378;9.948;2023-08-06T02:28:04;13.31;96.29
77496;SHT31;66600;48.378;9.948;2023-08-06T02:28:35;13.26;96.00
77496;SHT31;66600;48.378;9.948;2023-08-06T02:29:05;13.28;95.94
77496;SHT31;66600;48.378;9.948;2023-08-06T02:29:36;13.23;96.02
77496;SHT31;66600;48.378;9.948;2023-08-06T02:30:06;13.25;96.07
77496;SHT31;66600;48.378;9.948;2023-08-06T02:30:37;13.26;96.06
77496;SHT31;66600;48.378;9.948;2023-08-06T02:31:07;13.29;96.16
77496;SHT31;66600;48.378;9.948;2023-08-06T02:31:38;13.26;95.77
77496;SHT31;66600;48.378;9.948;2023-08-06T02:32:08;13.23;95.76
77496;SHT31;66600;48.378;9.948;2023-08-06T02:32:38;13.22;95.87
77496;SHT31;66600;48.378;9.948;2023-08-06T02:33:09;13.23;95.95
77496;SHT31;66600;48.378;9.948;2023-08-06T02:33:39;13.26;96.06
77496;SHT31;66600;48.378;9.948;2023-08-06T02:34:09;13.26;96.08
77496;SHT31;66600;48.378;9.948;2023-08-06T02:34:40;13.28;96.09
77496;SHT31;66600;48.378;9.948;2023-08-06T02:35:10;13.31;96.03
77496;SHT31;66600;48.378;9.948;2023-08-06T02:35:40;13.34;95.93
77496;SHT31;66600;48.378;9.948;2023-08-06T02:36:11;13.36;95.70
77496;SHT31;66600;48.378;9.948;2023-08-06T02:36:42;13.32;95.61
77496;SHT31;66600;48.378;9.948;2023-08-06T02:37:12;13.34;95.62
77496;SHT31;66600;48.378;9.948;2023-08-06T02:37:42;13.36;95.50
77496;SHT31;66600;48.378;9.948;2023-08-06T02:38:13;13.35;95.45
77496;SHT31;66600;48.378;9.948;2023-08-06T02:38:43;13.34;95.37
77496;SHT31;66600;48.378;9.948;2023-08-06T02:39:13;13.34;95.57
77496;SHT31;66600;48.378;9.948;2023-08-06T02:39:44;13.36;95.39
77496;SHT31;66600;48.378;9.948;2023-08-06T02:40:14;13.32;95.25
77496;SHT31;66600;48.378;9.948;2023-08-06T02:40:45;13.35;95.23
77496;SHT31;66600;48.378;9.948;2023-08-06T02:41:16;13.32;95.14
77496;SHT31;66600;48.378;9.948;2023-08-06T02:41:46;13.29;95.10
77496;SHT31;66600;48.378;9.948;2023-08-06T02:42:16;13.31;95.18
77496;SHT31;66600;48.378;9.948;2023-08-06T02:42:47;13.28;95.26
77496;SHT31;66600;48.378;9.948;2023-08-06T02:43:17;13.28;95.32
77496;SHT31;66600;48.378;9.948;2023-08-06T02:43:47;13.29;95.58
77496;SHT31;66600;48.378;9.948;2023-08-06T02:44:18;13.28;95.52
77496;SHT31;66600;48.378;9.948;2023-08-06T02:44:48;13.28;95.59
77496;SHT31;66600;48.378;9.948;2023-08-06T02:45:18;13.31;95.62
77496;SHT31;66600;48.378;9.948;2023-08-06T02:45:49;13.26;95.66
77496;SHT31;66600;48.378;9.948;2023-08-06T02:46:19;13.25;95.60
77496;SHT31;66600;48.378;9.948;2023-08-06T02:46:49;13.26;95.58
77496;SHT31;66600;48.378;9.948;2023-08-06T02:47:20;13.25;95.59
77496;SHT31;66600;48.378;9.948;2023-08-06T02:47:51;13.23;95.66
77496;SHT31;66600;48.378;9.948;2023-08-06T02:48:21;13.23;95.60
77496;SHT31;66600;48.378;9.948;2023-08-06T02:48:51;13.22;95.61
77496;SHT31;66600;48.378;9.948;2023-08-06T02:49:21;13.21;95.66
77496;SHT31;66600;48.378;9.948;2023-08-06T02:49:52;13.25;95.69
77496;SHT31;66600;48.378;9.948;2023-08-06T02:50:22;13.22;95.60
77496;SHT31;66600;48.378;9.948;2023-08-06T02:50:53;13.21;95.57
77496;SHT31;66600;48.378;9.948;2023-08-06T02:51:23;13.18;95.66
77496;SHT31;66600;48.378;9.948;2023-08-06T02:51:53;13.18;95.62
77496;SHT31;66600;48.378;9.948;2023-08-06T02:52:24;13.16;95.55
77496;SHT31;66600;48.378;9.948;2023-08-06T02:52:54;13.19;95.54
77496;SHT31;66600;48.378;9.948;2023-08-06T02:53:24;13.19;95.55
77496;SHT31;66600;48.378;9.948;2023-08-06T02:53:55;13.15;95.51
77496;SHT31;66600;48.378;9.948;2023-08-06T02:54:25;13.16;95.52
77496;SHT31;66600;48.378;9.948;2023-08-06T02:54:56;13.15;95.59
77496;SHT31;66600;48.378;9.948;2023-08-06T02:55:26;13.14;95.64
77496;SHT31;66600;48.378;9.948;2023-08-06T02:55:56;13.12;95.66
77496;SHT31;66600;48.378;9.948;2023-08-06T02:56:27;13.14;95.75
77496;SHT31;66600;48.378;9.948;2023-08-06T02:56:57;13.12;95.75
77496;SHT31;66600;48.378;9.948;2023-08-06T02:57:27;13.11;95.83
77496;SHT31;66600;48.378;9.948;2023-08-06T02:57:58;13.10;95.79
77496;SHT31;66600;48.378;9.948;2023-08-06T02:58:28;13.10;95.73
77496;SHT31;66600;48.378;9.948;2023-08-06T02:58:58;13.10;95.71
77496;SHT31;66600;48.378;9.948;2023-08-06T02:59:30;13.11;95.68
77496;SHT31;66600;48.378;9.948;2023-08-06T03:00:01;13.10;95.59
77496;SHT31;66600;48.378;9.948;2023-08-06T03:00:31;13.12;95.47
77496;SHT31;66600;48.378;9.948;2023-08-06T03:01:06;13.11;95.44
77496;SHT31;66600;48.378;9.948;2023-08-06T03:01:37;13.11;95.55
77496;SHT31;66600;48.378;9.948;2023-08-06T03:02:07;13.10;95.45
77496;SHT31;66600;48.378;9.948;2023-08-06T03:02:37;13.05;95.70
77496;SHT31;66600;48.378;9.948;2023-08-06T03:03:08;13.05;95.61
77496;SHT31;66600;48.378;9.948;2023-08-06T03:03:38;13.04;95.70
77496;SHT31;66600;48.378;9.948;2023-08-06T03:04:09;12.97;95.88
77496;SHT31;66600;48.378;9.948;2023-08-06T03:04:39;12.98;95.91
77496;SHT31;66600;48.378;9.948;2023-08-06T03:05:10;12.98;95.86
77496;SHT31;66600;48.378;9.948;2023-08-06T03:05:40;13.01;95.74
77496;SHT31;66600;48.378;9.948;2023-08-06T03:06:10;13.01;95.80
77496;SHT31;66600;48.378;9.948;2023-08-06T03:06:41;13.02;95.71
77496;SHT31;66600;48.378;9.948;2023-08-06T03:07:11;13.05;95.61
77496;SHT31;66600;48.378;9.948;2023-08-06T03:07:42;13.02;95.58
77496;SHT31;66600;48.378;9.948;2023-08-06T03:08:12;13.02;95.45
77496;SHT31;66600;48.378;9.948;2023-08-06T03:08:43;13.07;95.35
77496;SHT31;66600;48.378;9.948;2023-08-06T03:09:13;13.04;95.31
77496;SHT31;66600;48.378;9.948;2023-08-06T03:09:44;13.02;95.33
77496;SHT31;66600;48.378;9.948;2023-08-06T03:10:14;13.00;95.41
77496;SHT31;66600;48.378;9.948;2023-08-06T03:10:45;12.97;95.59
77496;SHT31;66600;48.378;9.948;2023-08-06T03:11:16;12.94;95.61
77496;SHT31;66600;48.378;9.948;2023-08-06T03:11:46;12.90;95.75
77496;SHT31;66600;48.378;9.948;2023-08-06T03:12:16;12.90;95.81
77496;SHT31;66600;48.378;9.948;2023-08-06T03:12:47;12.84;95.91
77496;SHT31;66600;48.378;9.948;2023-08-06T03:13:18;12.84;96.02
77496;SHT31;66600;48.378;9.948;2023-08-06T03:13:48;12.84;96.22
77496;SHT31;66600;48.378;9.948;2023-08-06T03:14:19;12.81;96.24
77496;SHT31;66600;48.378;9.948;2023-08-06T03:14:50;12.81;96.27
77496;SHT31;66600;48.378;9.948;2023-08-06T03:15:20;12.80;96.39
77496;SHT31;66600;48.378;9.948;2023-08-06T03:15:55;12.77;96.55
77496;SHT31;66600;48.378;9.948;2023-08-06T03:16:25;12.74;96.56
77496;SHT31;66600;48.378;9.948;2023-08-06T03:16:56;12.77;96.61
77496;SHT31;66600;48.378;9.948;2023-08-06T03:17:26;12.76;96.71
77496;SHT31;66600;48.378;9.948;2023-08-06T03:17:57;12.76;96.70
77496;SHT31;66600;48.378;9.948;2023-08-06T03:18:27;12.74;96.66
77496;SHT31;66600;48.378;9.948;2023-08-06T03:18:57;12.74;96.67
77496;SHT31;66600;48.378;9.948;2023-08-06T03:19:28;12.73;96.68
77496;SHT31;66600;48.378;9.948;2023-08-06T03:19:58;12.74;96.84
77496;SHT31;66600;48.378;9.948;2023-08-06T03:20:28;12.74;96.83
77496;SHT31;66600;48.378;9.948;2023-08-06T03:20:59;12.73;96.78
77496;SHT31;66600;48.378;9.948;2023-08-06T03:21:29;12.70;96.72
77496;SHT31;66600;48.378;9.948;2023-08-06T03:21:59;12.70;96.76